Flight Track Log - Related Links

Times and Time Zones

All times are in EDT time to prevent confusion due to time zone crossing. See the N4500Y flight status page for this flight to view local times or setup timezone preferences in your user account.

Time Position Orientation Groundspeed Altitude Reporting Facility
EDT Latitude Longitude Course Direction KTS MPH feet Rate Location/Type
Fri 04:01:58 PM 30.2967 -87.8403 277° West 126 145 3,200  Level Houston Center
Fri 04:03:00 PM 30.3003 -87.8850 275° West 132 152 3,900 726 Climbing Houston Center
Fri 04:04:02 PM 30.3011 -87.9400 271° West 138 159 4,700 677 Climbing Houston Center
Fri 04:05:04 PM 30.3008 -87.9869 270° West 142 163 5,300 581 Climbing Houston Center
Fri 04:06:06 PM 30.2997 -88.0328 268° West 144 166 5,900 532 Climbing Houston Center
Fri 04:07:08 PM 30.2989 -88.0786 269° West 145 167 6,400 532 Climbing Houston Center
Fri 04:08:10 PM 30.2983 -88.1275 269° West 150 173 7,000 532 Climbing Houston Center
Fri 04:09:12 PM 30.2983 -88.1758 270° West 150 173 7,500 480 Climbing Houston Center
Fri 04:10:15 PM 30.2969 -88.2339 268° West 150 173 8,000 240 Climbing Houston Center
Fri 04:11:17 PM 30.2978 -88.2858 271° West 160 184 8,000  Level Houston Center
Fri 04:12:19 PM 30.3017 -88.3378 275° West 161 185 8,000  Level Houston Center
Fri 04:13:21 PM 30.3000 -88.3869 268° West 153 176 8,000  Level Houston Center
Fri 04:14:23 PM 30.2978 -88.4375 267° West 156 180 8,000 -48 Level Houston Center
Fri 04:15:25 PM 30.2969 -88.4872 269° West 153 176 7,900  Descending Houston Center
Fri 04:16:27 PM 30.2928 -88.5461 265° West 152 175 8,000 48 Climbing Houston Center
Fri 04:17:29 PM 30.2961 -88.5967 274° West 156 180 8,000  Level Houston Center
Fri 04:18:32 PM 30.2950 -88.6461 269° West 154 177 8,000  Level Houston Center
Fri 04:19:34 PM 30.2931 -88.6961 267° West 156 180 8,000  Level Houston Center
Fri 04:20:36 PM 30.2936 -88.7469 271° West 156 180 8,000  Level Houston Center
Fri 04:21:38 PM 30.2933 -88.7969 270° West 157 181 8,000  Level Houston Center
Fri 04:22:40 PM 30.2911 -88.8558 268° West 153 176 8,000 -48 Level Houston Center
Fri 04:23:42 PM 30.2917 -88.9061 271° West 154 177 7,900  Descending Houston Center
Fri 04:24:44 PM 30.2908 -88.9569 269° West 152 175 8,000 48 Climbing Houston Center
Fri 04:25:46 PM 30.2908 -89.0069 270° West 154 177 8,000 -48 Level Houston Center
Fri 04:26:48 PM 30.2897 -89.0564 269° West 155 178 7,900  Descending Houston Center
Fri 04:27:51 PM 30.2892 -89.1050 269° West 153 176 8,000 48 Climbing Houston Center
Fri 04:28:53 PM 30.2892 -89.1531 270° West 150 173 8,000  Level Houston Center
Fri 04:29:55 PM 30.2867 -89.2122 267° West 153 176 8,000  Level Houston Center
Fri 04:31:00 PM 30.2838 -89.2666 267° West  Level FlightAware Approximate
Fri 04:31:59 PM 30.2858 -89.3094 267° West 152 175 8,000  Level Houston Center
Fri 04:32:44 PM 30.2861 -89.3506 270° West 151 174 8,100 80 Climbing Houston Center
Fri 04:33:14 PM 30.2869 -89.3722 273° West 149 171 8,100  Level Houston Center
Fri 04:34:16 PM 30.2806 -89.4253 262° West 157 181 8,100 -54 Level Houston Center
Fri 04:35:05 PM 30.2814 -89.4544 272° West 150 173 8,000 -54 Descending Houston Center
Fri 04:36:07 PM 30.2817 -89.5122 270° West 150 173 8,000  Level Houston Center
Fri 04:37:09 PM 30.2806 -89.5611 269° West 152 175 8,000 -48 Level Houston Center
Fri 04:38:12 PM 30.2797 -89.6103 269° West 151 174 7,900  Descending Houston Center
Fri 04:39:14 PM 30.2789 -89.6594 269° West 152 175 8,000 48 Climbing Houston Center
Fri 04:40:16 PM 30.2781 -89.7072 269° West 149 171 8,000  Level Houston Center
Fri 04:41:18 PM 30.2764 -89.7567 268° West 152 175 8,000  Level Houston Center
Fri 04:42:20 PM 30.2756 -89.8072 269° West 154 177 8,000  Level Houston Center
Fri 04:43:22 PM 30.2736 -89.8667 268° West 152 175 8,000 49 Level Houston Center
Fri 04:44:23 PM 30.2706 -89.9147 266° West 154 177 8,100 49 Climbing Houston Center
Fri 04:45:24 PM 30.2700 -89.9653 269° West 153 176 8,100 -48 Level Houston Center
Fri 04:46:29 PM 30.2694 -90.0158 269° West 154 177 8,000  Descending Houston Center
Fri 04:47:25 PM 30.2669 -90.0664 267° West 154 177 8,100  Climbing Houston Center
Fri 04:48:33 PM 30.2664 -90.1147 269° West 154 177 8,000 -46 Descending Houston Center
Fri 04:49:35 PM 30.2653 -90.1636 269° West 154 177 8,000  Level Houston Center
Fri 04:50:37 PM 30.2644 -90.2231 269° West 154 177 8,000 56 Level Houston Center
Fri 04:51:22 PM 30.2625 -90.2592 266° West 152 175 8,100  Climbing Houston Center
Fri 04:52:41 PM 30.2625 -90.3211 270° West 153 176 8,000  Descending Houston Center
Fri 04:53:42 PM 30.2597 -90.3750 267° West 152 175 8,100  Climbing Houston Center
Fri 04:54:24 PM 30.2606 -90.4086 272° West 153 176 8,000 -58 Descending Houston Center
Fri 04:55:25 PM 30.2581 -90.4617 267° West 155 178 8,000  Level Houston Center
Fri 04:56:49 PM 30.2556 -90.5292 268° West 157 181 8,000  Level Houston Center
Fri 04:57:52 PM 30.2553 -90.5778 270° West 156 180 8,000  Level Houston Center
Fri 04:58:54 PM 30.2539 -90.6283 268° West 157 181 8,000  Level Houston Center
Fri 04:59:56 PM 30.2519 -90.6789 267° West 159 183 8,000  Level Houston Center
Fri 05:00:58 PM 30.2519 -90.7278 270° West 156 180 8,000  Level Houston Center
Fri 05:02:00 PM 30.2500 -90.7883 268° West 157 181 8,000  Level Houston Center
Fri 05:03:02 PM 30.2494 -90.8392 269° West 158 182 8,000  Level Houston Center
Fri 05:04:04 PM 30.2483 -90.8894 269° West 158 182 8,000  Level Houston Center
Fri 05:05:07 PM 30.2478 -90.9400 269° West 158 182 8,000  Level Houston Center
Fri 05:06:09 PM 30.2469 -90.9900 269° West 157 181 8,000  Level Houston Center
Fri 05:07:11 PM 30.2478 -91.0397 271° West 157 181 8,000  Level Houston Center
Fri 05:08:13 PM 30.2458 -91.1011 268° West 158 182 8,000  Level Houston Center
Fri 05:09:15 PM 30.2442 -91.1506 268° West 156 180 8,000  Level Houston Center
Fri 05:10:17 PM 30.2478 -91.2008 275° West 157 181 8,000 -48 Level Houston Center
Fri 05:11:19 PM 30.2467 -91.2514 269° West 158 182 7,900 -48 Descending Houston Center
Fri 05:12:21 PM 30.2467 -91.3019 270° West 158 182 7,900 -194 Level Houston Center
Fri 05:13:23 PM 30.2469 -91.3544 270° West 164 189 7,500 -435 Descending Houston Center
Fri 05:14:25 PM 30.2447 -91.4250 268° West 184 212 7,000 -435 Descending Houston Center
Fri 05:15:27 PM 30.2419 -91.4831 267° West 183 211 6,600 -484 Descending Houston Center
Fri 05:16:29 PM 30.2394 -91.5428 267° West 185 213 6,000 -528 Descending Houston Center
Fri 05:17:32 PM 30.2383 -91.6011 269° West 183 211 5,500 -480 Descending Houston Center
Fri 05:18:34 PM 30.2403 -91.6592 272° West 182 209 5,000 -484 Descending Houston Center
Fri 05:19:36 PM 30.2717 -91.7039 309° West 174 200 4,500 -484 Descending Houston Center
Fri 05:20:38 PM 30.3064 -91.7575 307° West 174 200 4,000 -581 Descending Houston Center
Fri 05:21:40 PM 30.3378 -91.8003 310° West 175 201 3,300 -532 Descending Houston Center
Fri 05:22:42 PM 30.3378 -91.8531 270° West 184 212 2,900 -387 Descending Houston Center
Fri 05:23:44 PM 30.3086 -91.8883 226° Southwest 170 196 2,500 -484 Descending Houston Center
Fri 05:24:46 PM 30.2689 -91.9253 219° Southwest 166 191 1,900 -581 Descending Houston Center
Fri 05:26:00 PM 30.2258 -91.9616 216° Southwest  Level FlightAware Approximate
Fri 05:33:00 PM 30.2000 -91.9833 221° Southwest  Level FlightAware Approximate
Fri 05:34:00 PM 30.2050 -91.9877 221° Southwest  Level Estimated
Fri 05:35:00 PM 30.2000 -91.9833 221° Southwest  Level FlightAware Approximate
Fri 05:36:00 PM 30.2050 -91.9877 221° Southwest  Level Estimated

Login

Don't have an account? Register now (free) for customized features, flight alerts, and more!